createdAt,value
2023-01-17T00:05:04.936Z,25.00
2023-01-17T00:11:07.168Z,23.67
2023-01-17T00:17:09.185Z,25.40
2023-01-17T00:23:33.700Z,26.42
2023-01-17T00:29:35.666Z,25.27
2023-01-17T00:35:37.952Z,26.10
2023-01-17T00:41:39.923Z,26.30
2023-01-17T00:48:04.077Z,19.60
2023-01-17T00:54:25.385Z,24.20
2023-01-17T01:00:46.319Z,25.15
2023-01-17T01:07:06.887Z,23.77
2023-01-17T01:13:27.873Z,24.88
2023-01-17T01:19:49.339Z,24.52
2023-01-17T01:26:10.889Z,24.27
2023-01-17T01:32:31.726Z,25.77
2023-01-17T01:38:33.800Z,25.52
2023-01-17T01:44:45.134Z,25.20
2023-01-17T01:50:48.747Z,25.85
2023-01-17T01:56:52.823Z,24.80
2023-01-17T02:02:58.461Z,25.88
2023-01-17T02:09:05.884Z,26.38
2023-01-17T02:15:08.651Z,26.65
2023-01-17T02:21:13.608Z,24.92
2023-01-17T02:27:27.825Z,25.35
2023-01-17T02:33:48.643Z,23.70
2023-01-17T02:40:03.056Z,24.58
2023-01-17T02:46:05.413Z,27.48
2023-01-17T02:52:36.179Z,25.60
2023-01-17T02:59:02.335Z,25.48
2023-01-17T03:05:20.232Z,24.30
2023-01-17T03:11:22.724Z,25.50
2023-01-17T03:17:29.276Z,23.55
2023-01-17T03:23:31.685Z,26.20
2023-01-17T03:29:34.145Z,23.48
2023-01-17T03:35:36.377Z,23.98
2023-01-17T03:41:38.926Z,26.30
2023-01-17T03:47:41.771Z,22.30
2023-01-17T03:53:46.980Z,22.63
2023-01-17T03:59:49.666Z,22.95
2023-01-17T04:05:52.170Z,23.63
2023-01-17T04:11:54.428Z,23.08
2023-01-17T04:17:56.839Z,23.55
2023-01-17T04:23:59.220Z,23.02
2023-01-17T04:30:01.425Z,23.13
2023-01-17T04:36:03.872Z,27.13
2023-01-17T04:42:06.439Z,23.10
2023-01-17T04:54:10.979Z,23.63
2023-01-17T05:00:13.886Z,22.07
2023-01-17T05:06:16.259Z,22.63
2023-01-17T05:12:25.731Z,22.67
2023-01-17T05:18:27.818Z,22.83
2023-01-17T05:24:31.259Z,22.13
2023-01-17T05:30:33.706Z,22.00
2023-01-17T05:36:36.065Z,23.52
2023-01-17T05:42:38.777Z,23.00
2023-01-17T05:54:43.152Z,22.73
2023-01-17T06:00:45.699Z,25.15
2023-01-17T06:12:49.885Z,25.02
2023-01-17T06:18:52.089Z,21.73
2023-01-17T06:24:54.679Z,22.15
2023-01-17T06:30:57.036Z,23.77
2023-01-17T06:36:59.473Z,21.48
2023-01-17T06:43:03.099Z,24.42
2023-01-17T06:49:05.680Z,26.05
2023-01-17T06:55:09.035Z,30.33
2023-01-17T07:01:13.180Z,25.95
2023-01-17T07:07:16.064Z,22.33
2023-01-17T07:13:18.652Z,24.98
2023-01-17T07:25:23.246Z,36.65
2023-01-17T07:31:25.487Z,25.52
2023-01-17T07:37:27.686Z,27.48
2023-01-17T07:43:30.288Z,26.77
2023-01-17T07:55:34.820Z,28.75
2023-01-17T08:01:37.432Z,26.52
2023-01-17T08:07:40.025Z,27.23
2023-01-17T08:13:42.222Z,31.08
2023-01-17T08:19:45.203Z,27.00
2023-01-17T08:25:47.375Z,27.23
2023-01-17T08:31:50.153Z,30.00
2023-01-17T08:37:54.620Z,28.60
2023-01-17T08:43:57.087Z,27.95
2023-01-17T08:50:02.011Z,28.67
2023-01-17T08:56:05.751Z,27.63
2023-01-17T09:02:15.374Z,31.90
2023-01-17T09:08:17.508Z,33.30
2023-01-17T09:14:19.785Z,30.87
2023-01-17T09:20:22.152Z,30.17
2023-01-17T09:26:29.957Z,29.75
2023-01-17T09:32:32.360Z,30.80
2023-01-17T09:38:34.610Z,31.58
2023-01-17T09:44:45.143Z,28.02
2023-01-17T09:50:53.653Z,31.13
2023-01-17T09:57:04.789Z,29.80
2023-01-17T10:03:31.704Z,30.10
2023-01-17T10:09:44.614Z,29.17
2023-01-17T10:15:54.680Z,30.83
2023-01-17T10:22:31.412Z,27.05
2023-01-17T10:28:40.706Z,22.40
2023-01-17T10:34:50.241Z,22.67
2023-01-17T10:41:16.639Z,22.15
2023-01-17T10:47:24.616Z,24.20
2023-01-17T10:53:48.233Z,16.92
2023-01-17T11:06:15.170Z,15.77
2023-01-17T11:12:25.169Z,14.23
2023-01-17T11:18:30.134Z,15.77
2023-01-17T11:24:40.671Z,14.98
2023-01-17T11:30:52.600Z,12.60
2023-01-17T11:37:18.237Z,12.82
2023-01-17T11:43:27.991Z,12.63
2023-01-17T11:49:30.042Z,12.57
2023-01-17T11:55:32.233Z,11.77
2023-01-17T12:02:15.902Z,11.93
2023-01-17T12:08:39.615Z,12.40
2023-01-17T12:15:09.609Z,9.30
2023-01-17T12:21:28.324Z,11.02
2023-01-17T12:27:53.964Z,12.48
2023-01-17T12:34:02.640Z,8.82
2023-01-17T12:40:07.927Z,9.93
2023-01-17T12:46:21.551Z,9.18
2023-01-17T12:52:45.563Z,9.35
2023-01-17T12:58:52.471Z,7.65
2023-01-17T13:04:59.670Z,4.03
2023-01-17T13:11:28.422Z,3.33
2023-01-17T13:18:01.732Z,3.13
2023-01-17T13:24:23.080Z,3.67
2023-01-17T13:31:03.327Z,3.58
2023-01-17T13:37:33.742Z,3.10
2023-01-17T13:43:39.559Z,3.42
2023-01-17T13:49:42.272Z,3.50
2023-01-17T14:01:52.357Z,4.22
2023-01-17T14:08:02.480Z,4.25
2023-01-17T14:14:44.567Z,4.70
2023-01-17T14:20:50.301Z,5.50
2023-01-17T14:26:59.705Z,9.13
2023-01-17T14:33:12.826Z,6.65
2023-01-17T14:45:28.384Z,7.38
2023-01-17T14:51:35.204Z,8.40
2023-01-17T14:57:37.405Z,9.20
2023-01-17T15:03:51.409Z,10.37
2023-01-17T15:09:53.531Z,11.40
2023-01-17T15:16:07.690Z,13.00
2023-01-17T15:22:10.631Z,16.50
2023-01-17T15:28:13.752Z,16.90
2023-01-17T15:34:34.724Z,18.73
2023-01-17T15:40:43.911Z,19.27
2023-01-17T15:46:46.347Z,21.15
2023-01-17T15:52:49.826Z,19.70
2023-01-17T15:58:54.948Z,23.55
2023-01-17T16:04:57.523Z,22.93
2023-01-17T16:11:06.464Z,24.15
2023-01-17T16:17:16.272Z,26.88
2023-01-17T16:23:18.920Z,28.25
2023-01-17T16:29:20.969Z,27.60
2023-01-17T16:35:24.183Z,27.40
2023-01-17T16:41:26.463Z,27.55
2023-01-17T16:47:28.597Z,26.35
2023-01-17T16:53:30.875Z,26.00
2023-01-17T16:59:49.639Z,26.83
2023-01-17T17:05:57.613Z,26.00
2023-01-17T17:12:00.061Z,29.20
2023-01-17T17:18:02.299Z,29.52
2023-01-17T17:24:05.052Z,32.83
2023-01-17T17:36:12.620Z,28.60
2023-01-17T17:42:17.018Z,27.45
2023-01-17T17:48:20.798Z,28.58
2023-01-17T17:54:24.947Z,31.40
2023-01-17T18:00:27.723Z,32.15
2023-01-17T18:12:32.359Z,30.58
2023-01-17T18:18:36.681Z,30.38
2023-01-17T18:24:38.901Z,30.42
2023-01-17T18:30:41.246Z,30.85
2023-01-17T18:36:44.383Z,30.23
2023-01-17T18:42:48.775Z,27.92
2023-01-17T18:48:50.852Z,28.27
2023-01-17T18:54:52.901Z,28.47
2023-01-17T19:00:55.588Z,28.43
2023-01-17T19:13:00.689Z,25.65
2023-01-17T19:19:07.134Z,26.70
2023-01-17T19:25:09.309Z,27.60
2023-01-17T19:31:16.503Z,28.23
2023-01-17T19:37:18.706Z,30.60
2023-01-17T19:43:21.273Z,28.20
2023-01-17T19:49:25.034Z,26.98
2023-01-17T19:55:27.157Z,24.95
2023-01-17T20:01:31.700Z,21.60
2023-01-17T20:07:34.268Z,19.48
2023-01-17T20:13:36.629Z,19.42
2023-01-17T20:19:38.808Z,18.52
2023-01-17T20:25:41.154Z,13.77
2023-01-17T20:31:44.595Z,15.88
2023-01-17T20:37:47.265Z,17.73
2023-01-17T20:43:54.731Z,14.35
2023-01-17T20:49:57.806Z,13.00
2023-01-17T20:56:00.023Z,13.55
2023-01-17T21:02:02.467Z,12.73
2023-01-17T21:08:05.440Z,10.68
2023-01-17T21:14:07.762Z,12.60
2023-01-17T21:20:14.210Z,10.65
2023-01-17T21:26:18.037Z,12.45
2023-01-17T21:32:20.372Z,12.05
2023-01-17T21:38:22.849Z,10.32
2023-01-17T21:44:26.375Z,10.60
2023-01-17T21:50:33.404Z,10.45
2023-01-17T21:56:55.018Z,12.27
2023-01-17T22:02:58.965Z,10.45
2023-01-17T22:09:01.540Z,9.23
2023-01-17T22:15:04.351Z,11.63
2023-01-17T22:27:13.924Z,7.80
2023-01-17T22:33:16.331Z,6.97
2023-01-17T22:39:18.311Z,7.30
2023-01-17T22:45:20.491Z,6.83
2023-01-17T22:51:26.772Z,6.05
2023-01-17T22:57:29.034Z,6.03
2023-01-17T23:03:31.817Z,4.70
2023-01-17T23:15:58.173Z,4.88
2023-01-17T23:22:16.918Z,4.18
2023-01-17T23:28:21.326Z,4.85
2023-01-17T23:34:23.439Z,5.60
2023-01-17T23:40:25.647Z,4.13
2023-01-17T23:46:29.079Z,5.35
2023-01-17T23:52:31.258Z,4.82
2023-01-17T23:58:35.066Z,3.83
